sensor_id;sensor_type;location;lat;lon;timestamp;P1;durP1;ratioP1;P2;durP2;ratioP2
4821;SDS011;2425;47.794;13.068;2023-07-08T00:00:48;4.47;;;4.07;;
4821;SDS011;2425;47.794;13.068;2023-07-08T00:03:15;4.63;;;4.23;;
4821;SDS011;2425;47.794;13.068;2023-07-08T00:05:43;4.50;;;4.20;;
4821;SDS011;2425;47.794;13.068;2023-07-08T00:08:11;5.20;;;4.70;;
4821;SDS011;2425;47.794;13.068;2023-07-08T00:10:39;4.10;;;3.80;;
4821;SDS011;2425;47.794;13.068;2023-07-08T00:13:07;4.60;;;4.17;;
4821;SDS011;2425;47.794;13.068;2023-07-08T00:15:35;4.60;;;4.30;;
4821;SDS011;2425;47.794;13.068;2023-07-08T00:18:03;5.00;;;4.50;;
4821;SDS011;2425;47.794;13.068;2023-07-08T00:20:38;5.03;;;4.53;;
4821;SDS011;2425;47.794;13.068;2023-07-08T00:23:08;4.00;;;3.70;;
4821;SDS011;2425;47.794;13.068;2023-07-08T00:25:35;4.90;;;4.43;;
4821;SDS011;2425;47.794;13.068;2023-07-08T00:28:08;4.50;;;4.20;;
4821;SDS011;2425;47.794;13.068;2023-07-08T00:30:45;4.67;;;4.30;;
4821;SDS011;2425;47.794;13.068;2023-07-08T00:33:11;5.13;;;4.73;;
4821;SDS011;2425;47.794;13.068;2023-07-08T00:35:38;4.00;;;3.70;;
4821;SDS011;2425;47.794;13.068;2023-07-08T00:38:11;4.30;;;4.00;;
4821;SDS011;2425;47.794;13.068;2023-07-08T00:40:48;4.50;;;4.20;;
4821;SDS011;2425;47.794;13.068;2023-07-08T00:43:16;4.60;;;4.20;;
4821;SDS011;2425;47.794;13.068;2023-07-08T00:45:44;4.03;;;3.77;;
4821;SDS011;2425;47.794;13.068;2023-07-08T00:48:16;5.60;;;4.17;;
4821;SDS011;2425;47.794;13.068;2023-07-08T00:50:45;4.20;;;3.90;;
4821;SDS011;2425;47.794;13.068;2023-07-08T00:53:23;4.63;;;4.30;;
4821;SDS011;2425;47.794;13.068;2023-07-08T00:55:51;4.23;;;3.93;;
4821;SDS011;2425;47.794;13.068;2023-07-08T00:58:19;4.13;;;3.83;;
4821;SDS011;2425;47.794;13.068;2023-07-08T01:00:47;4.40;;;4.10;;
4821;SDS011;2425;47.794;13.068;2023-07-08T01:03:16;4.43;;;4.10;;
4821;SDS011;2425;47.794;13.068;2023-07-08T01:05:44;5.00;;;4.60;;
4821;SDS011;2425;47.794;13.068;2023-07-08T01:08:12;4.80;;;4.40;;
4821;SDS011;2425;47.794;13.068;2023-07-08T01:10:42;4.67;;;3.97;;
4821;SDS011;2425;47.794;13.068;2023-07-08T01:13:10;4.00;;;3.70;;
4821;SDS011;2425;47.794;13.068;2023-07-08T01:15:39;3.80;;;3.50;;
4821;SDS011;2425;47.794;13.068;2023-07-08T01:18:07;5.60;;;4.67;;
4821;SDS011;2425;47.794;13.068;2023-07-08T01:20:35;4.27;;;3.70;;
4821;SDS011;2425;47.794;13.068;2023-07-08T01:23:03;4.20;;;4.00;;
4821;SDS011;2425;47.794;13.068;2023-07-08T01:25:30;3.90;;;3.60;;
4821;SDS011;2425;47.794;13.068;2023-07-08T01:27:57;4.90;;;4.50;;
4821;SDS011;2425;47.794;13.068;2023-07-08T01:30:24;4.93;;;4.53;;
4821;SDS011;2425;47.794;13.068;2023-07-08T01:32:54;4.20;;;3.90;;
4821;SDS011;2425;47.794;13.068;2023-07-08T01:35:22;3.80;;;3.60;;
4821;SDS011;2425;47.794;13.068;2023-07-08T01:37:50;4.43;;;4.13;;
4821;SDS011;2425;47.794;13.068;2023-07-08T01:40:27;4.33;;;3.93;;
4821;SDS011;2425;47.794;13.068;2023-07-08T01:42:56;3.93;;;3.60;;
4821;SDS011;2425;47.794;13.068;2023-07-08T01:45:24;3.70;;;3.50;;
4821;SDS011;2425;47.794;13.068;2023-07-08T01:47:56;4.53;;;4.20;;
4821;SDS011;2425;47.794;13.068;2023-07-08T01:50:24;3.73;;;3.43;;
4821;SDS011;2425;47.794;13.068;2023-07-08T01:52:52;4.23;;;3.93;;
4821;SDS011;2425;47.794;13.068;2023-07-08T01:55:20;4.07;;;3.77;;
4821;SDS011;2425;47.794;13.068;2023-07-08T01:57:50;4.00;;;3.70;;
4821;SDS011;2425;47.794;13.068;2023-07-08T02:00:17;4.50;;;4.10;;
4821;SDS011;2425;47.794;13.068;2023-07-08T02:02:44;3.53;;;3.33;;
4821;SDS011;2425;47.794;13.068;2023-07-08T02:05:11;4.43;;;4.13;;
4821;SDS011;2425;47.794;13.068;2023-07-08T02:07:38;3.87;;;3.60;;
4821;SDS011;2425;47.794;13.068;2023-07-08T02:10:05;3.93;;;3.73;;
4821;SDS011;2425;47.794;13.068;2023-07-08T02:12:32;3.90;;;3.60;;
4821;SDS011;2425;47.794;13.068;2023-07-08T02:15:00;4.00;;;3.73;;
4821;SDS011;2425;47.794;13.068;2023-07-08T02:17:28;4.60;;;4.20;;
4821;SDS011;2425;47.794;13.068;2023-07-08T02:19:55;4.43;;;4.03;;
4821;SDS011;2425;47.794;13.068;2023-07-08T02:22:21;4.70;;;4.30;;
4821;SDS011;2425;47.794;13.068;2023-07-08T02:24:48;4.03;;;3.73;;
4821;SDS011;2425;47.794;13.068;2023-07-08T02:27:15;4.00;;;3.70;;
4821;SDS011;2425;47.794;13.068;2023-07-08T02:29:42;4.20;;;3.80;;
4821;SDS011;2425;47.794;13.068;2023-07-08T02:32:10;4.10;;;3.80;;
4821;SDS011;2425;47.794;13.068;2023-07-08T02:34:36;4.23;;;3.93;;
4821;SDS011;2425;47.794;13.068;2023-07-08T02:37:03;3.83;;;3.53;;
4821;SDS011;2425;47.794;13.068;2023-07-08T02:39:30;3.50;;;3.27;;
4821;SDS011;2425;47.794;13.068;2023-07-08T02:41:57;3.90;;;3.60;;
4821;SDS011;2425;47.794;13.068;2023-07-08T02:44:23;4.23;;;3.90;;
4821;SDS011;2425;47.794;13.068;2023-07-08T02:46:51;3.80;;;3.60;;
4821;SDS011;2425;47.794;13.068;2023-07-08T02:49:19;4.33;;;4.03;;
4821;SDS011;2425;47.794;13.068;2023-07-08T02:51:46;3.93;;;3.70;;
4821;SDS011;2425;47.794;13.068;2023-07-08T02:54:13;4.37;;;4.07;;
4821;SDS011;2425;47.794;13.068;2023-07-08T02:56:39;3.97;;;3.73;;
4821;SDS011;2425;47.794;13.068;2023-07-08T02:59:06;4.00;;;3.60;;
4821;SDS011;2425;47.794;13.068;2023-07-08T03:01:33;3.93;;;3.63;;
4821;SDS011;2425;47.794;13.068;2023-07-08T03:04:06;3.50;;;3.30;;
4821;SDS011;2425;47.794;13.068;2023-07-08T03:06:35;4.30;;;4.00;;
4821;SDS011;2425;47.794;13.068;2023-07-08T03:09:01;3.83;;;3.53;;
4821;SDS011;2425;47.794;13.068;2023-07-08T03:11:28;4.30;;;4.00;;
4821;SDS011;2425;47.794;13.068;2023-07-08T03:13:55;4.83;;;4.43;;
4821;SDS011;2425;47.794;13.068;2023-07-08T03:16:22;4.13;;;3.83;;
4821;SDS011;2425;47.794;13.068;2023-07-08T03:18:48;3.90;;;3.60;;
4821;SDS011;2425;47.794;13.068;2023-07-08T03:21:16;4.37;;;3.63;;
4821;SDS011;2425;47.794;13.068;2023-07-08T03:23:44;3.70;;;3.50;;
4821;SDS011;2425;47.794;13.068;2023-07-08T03:26:12;4.70;;;4.30;;
4821;SDS011;2425;47.794;13.068;2023-07-08T03:28:40;4.07;;;3.67;;
4821;SDS011;2425;47.794;13.068;2023-07-08T03:31:08;3.80;;;3.60;;
4821;SDS011;2425;47.794;13.068;2023-07-08T03:33:36;3.67;;;3.47;;
4821;SDS011;2425;47.794;13.068;2023-07-08T03:36:03;3.83;;;3.53;;
4821;SDS011;2425;47.794;13.068;2023-07-08T03:38:30;3.83;;;3.53;;
4821;SDS011;2425;47.794;13.068;2023-07-08T03:40:58;3.40;;;3.20;;
4821;SDS011;2425;47.794;13.068;2023-07-08T03:43:25;4.53;;;4.07;;
4821;SDS011;2425;47.794;13.068;2023-07-08T03:45:51;3.80;;;3.50;;
4821;SDS011;2425;47.794;13.068;2023-07-08T03:48:18;3.97;;;3.70;;
4821;SDS011;2425;47.794;13.068;2023-07-08T03:50:45;3.90;;;3.70;;
4821;SDS011;2425;47.794;13.068;2023-07-08T03:53:11;3.80;;;3.60;;
4821;SDS011;2425;47.794;13.068;2023-07-08T03:55:38;4.13;;;3.83;;
4821;SDS011;2425;47.794;13.068;2023-07-08T03:58:06;3.80;;;3.57;;
4821;SDS011;2425;47.794;13.068;2023-07-08T04:00:33;4.20;;;3.90;;
4821;SDS011;2425;47.794;13.068;2023-07-08T04:03:00;4.00;;;3.70;;
4821;SDS011;2425;47.794;13.068;2023-07-08T04:05:26;3.53;;;3.30;;
4821;SDS011;2425;47.794;13.068;2023-07-08T04:07:54;4.13;;;3.87;;
4821;SDS011;2425;47.794;13.068;2023-07-08T04:10:21;4.00;;;3.70;;
4821;SDS011;2425;47.794;13.068;2023-07-08T04:12:48;3.20;;;3.03;;
4821;SDS011;2425;47.794;13.068;2023-07-08T04:15:16;3.77;;;3.57;;
4821;SDS011;2425;47.794;13.068;2023-07-08T04:17:43;3.77;;;3.57;;
4821;SDS011;2425;47.794;13.068;2023-07-08T04:20:13;4.00;;;3.70;;
4821;SDS011;2425;47.794;13.068;2023-07-08T04:22:40;4.17;;;3.83;;
4821;SDS011;2425;47.794;13.068;2023-07-08T04:25:07;4.07;;;3.77;;
4821;SDS011;2425;47.794;13.068;2023-07-08T04:27:36;3.63;;;3.33;;
4821;SDS011;2425;47.794;13.068;2023-07-08T04:30:02;4.23;;;3.90;;
4821;SDS011;2425;47.794;13.068;2023-07-08T04:32:31;3.80;;;3.50;;
4821;SDS011;2425;47.794;13.068;2023-07-08T04:34:58;3.97;;;3.67;;
4821;SDS011;2425;47.794;13.068;2023-07-08T04:37:24;4.27;;;3.97;;
4821;SDS011;2425;47.794;13.068;2023-07-08T04:39:51;3.67;;;3.47;;
4821;SDS011;2425;47.794;13.068;2023-07-08T04:42:18;3.70;;;3.40;;
4821;SDS011;2425;47.794;13.068;2023-07-08T04:44:44;3.57;;;3.30;;
4821;SDS011;2425;47.794;13.068;2023-07-08T04:47:11;3.57;;;3.37;;
4821;SDS011;2425;47.794;13.068;2023-07-08T04:49:40;4.30;;;3.80;;
4821;SDS011;2425;47.794;13.068;2023-07-08T04:52:09;3.63;;;3.43;;
4821;SDS011;2425;47.794;13.068;2023-07-08T04:54:36;3.87;;;3.57;;
4821;SDS011;2425;47.794;13.068;2023-07-08T04:57:02;3.63;;;3.40;;
4821;SDS011;2425;47.794;13.068;2023-07-08T04:59:30;3.57;;;3.30;;
4821;SDS011;2425;47.794;13.068;2023-07-08T05:01:59;3.93;;;3.63;;
4821;SDS011;2425;47.794;13.068;2023-07-08T05:04:26;4.03;;;3.80;;
4821;SDS011;2425;47.794;13.068;2023-07-08T05:06:54;3.67;;;3.37;;
4821;SDS011;2425;47.794;13.068;2023-07-08T05:09:21;3.70;;;3.40;;
4821;SDS011;2425;47.794;13.068;2023-07-08T05:11:50;3.03;;;2.83;;
4821;SDS011;2425;47.794;13.068;2023-07-08T05:14:17;3.40;;;3.20;;
4821;SDS011;2425;47.794;13.068;2023-07-08T05:16:44;3.67;;;3.37;;
4821;SDS011;2425;47.794;13.068;2023-07-08T05:19:11;3.63;;;3.37;;
4821;SDS011;2425;47.794;13.068;2023-07-08T05:21:37;4.03;;;3.73;;
4821;SDS011;2425;47.794;13.068;2023-07-08T05:24:06;4.00;;;3.70;;
4821;SDS011;2425;47.794;13.068;2023-07-08T05:26:33;3.40;;;3.20;;
4821;SDS011;2425;47.794;13.068;2023-07-08T05:29:00;3.50;;;3.30;;
4821;SDS011;2425;47.794;13.068;2023-07-08T05:31:27;3.47;;;3.27;;
4821;SDS011;2425;47.794;13.068;2023-07-08T05:33:54;4.00;;;3.70;;
4821;SDS011;2425;47.794;13.068;2023-07-08T05:36:20;4.17;;;3.87;;
4821;SDS011;2425;47.794;13.068;2023-07-08T05:38:47;4.03;;;3.70;;
4821;SDS011;2425;47.794;13.068;2023-07-08T05:41:16;3.70;;;3.50;;
4821;SDS011;2425;47.794;13.068;2023-07-08T05:43:42;3.20;;;3.00;;
4821;SDS011;2425;47.794;13.068;2023-07-08T05:46:09;3.17;;;2.97;;
4821;SDS011;2425;47.794;13.068;2023-07-08T05:48:36;3.60;;;3.40;;
4821;SDS011;2425;47.794;13.068;2023-07-08T05:51:02;3.47;;;3.27;;
4821;SDS011;2425;47.794;13.068;2023-07-08T05:53:29;3.70;;;3.43;;
4821;SDS011;2425;47.794;13.068;2023-07-08T05:55:56;3.70;;;3.43;;
4821;SDS011;2425;47.794;13.068;2023-07-08T05:58:24;4.00;;;3.70;;
4821;SDS011;2425;47.794;13.068;2023-07-08T06:00:54;3.93;;;3.67;;
4821;SDS011;2425;47.794;13.068;2023-07-08T06:03:22;3.43;;;3.23;;
4821;SDS011;2425;47.794;13.068;2023-07-08T06:05:48;3.80;;;3.50;;
4821;SDS011;2425;47.794;13.068;2023-07-08T06:08:15;3.37;;;3.17;;
4821;SDS011;2425;47.794;13.068;2023-07-08T06:10:42;3.43;;;3.23;;
4821;SDS011;2425;47.794;13.068;2023-07-08T06:13:09;3.37;;;3.17;;
4821;SDS011;2425;47.794;13.068;2023-07-08T06:15:38;2.83;;;2.73;;
4821;SDS011;2425;47.794;13.068;2023-07-08T06:18:04;3.23;;;3.03;;
4821;SDS011;2425;47.794;13.068;2023-07-08T06:20:31;3.53;;;3.33;;
4821;SDS011;2425;47.794;13.068;2023-07-08T06:22:58;3.40;;;3.20;;
4821;SDS011;2425;47.794;13.068;2023-07-08T06:25:25;3.40;;;3.20;;
4821;SDS011;2425;47.794;13.068;2023-07-08T06:27:51;2.87;;;2.70;;
4821;SDS011;2425;47.794;13.068;2023-07-08T06:30:18;3.00;;;2.80;;
4821;SDS011;2425;47.794;13.068;2023-07-08T06:32:46;3.13;;;3.00;;
4821;SDS011;2425;47.794;13.068;2023-07-08T06:35:13;3.10;;;2.90;;
4821;SDS011;2425;47.794;13.068;2023-07-08T06:37:39;3.50;;;3.30;;
4821;SDS011;2425;47.794;13.068;2023-07-08T06:40:07;3.10;;;2.90;;
4821;SDS011;2425;47.794;13.068;2023-07-08T06:42:34;3.30;;;3.10;;
4821;SDS011;2425;47.794;13.068;2023-07-08T06:45:01;3.30;;;3.10;;
4821;SDS011;2425;47.794;13.068;2023-07-08T06:47:28;3.20;;;3.00;;
4821;SDS011;2425;47.794;13.068;2023-07-08T06:49:56;3.80;;;3.50;;
4821;SDS011;2425;47.794;13.068;2023-07-08T06:52:22;4.57;;;4.17;;
4821;SDS011;2425;47.794;13.068;2023-07-08T06:54:49;5.23;;;4.80;;
4821;SDS011;2425;47.794;13.068;2023-07-08T06:57:16;9.90;;;5.80;;
4821;SDS011;2425;47.794;13.068;2023-07-08T06:59:43;5.10;;;4.70;;
4821;SDS011;2425;47.794;13.068;2023-07-08T07:02:09;5.73;;;5.00;;
4821;SDS011;2425;47.794;13.068;2023-07-08T07:04:36;7.97;;;5.27;;
4821;SDS011;2425;47.794;13.068;2023-07-08T07:07:04;5.60;;;5.10;;
4821;SDS011;2425;47.794;13.068;2023-07-08T07:09:31;4.80;;;4.40;;
4821;SDS011;2425;47.794;13.068;2023-07-08T07:11:58;6.00;;;5.43;;
4821;SDS011;2425;47.794;13.068;2023-07-08T07:14:24;5.60;;;4.70;;
4821;SDS011;2425;47.794;13.068;2023-07-08T07:16:51;5.33;;;4.87;;
4821;SDS011;2425;47.794;13.068;2023-07-08T07:19:18;5.40;;;4.90;;
4821;SDS011;2425;47.794;13.068;2023-07-08T07:21:46;5.60;;;4.80;;
4821;SDS011;2425;47.794;13.068;2023-07-08T07:24:14;7.80;;;4.53;;
4821;SDS011;2425;47.794;13.068;2023-07-08T07:26:41;5.40;;;4.90;;
4821;SDS011;2425;47.794;13.068;2023-07-08T07:29:08;4.73;;;4.33;;
4821;SDS011;2425;47.794;13.068;2023-07-08T07:31:34;10.47;;;5.40;;
4821;SDS011;2425;47.794;13.068;2023-07-08T07:34:01;7.60;;;5.17;;
4821;SDS011;2425;47.794;13.068;2023-07-08T07:36:28;6.57;;;4.90;;
4821;SDS011;2425;47.794;13.068;2023-07-08T07:38:55;5.00;;;4.50;;
4821;SDS011;2425;47.794;13.068;2023-07-08T07:41:23;4.43;;;4.03;;
4821;SDS011;2425;47.794;13.068;2023-07-08T07:43:50;5.60;;;4.80;;
4821;SDS011;2425;47.794;13.068;2023-07-08T07:46:16;5.30;;;4.80;;
4821;SDS011;2425;47.794;13.068;2023-07-08T07:48:43;5.97;;;4.70;;
4821;SDS011;2425;47.794;13.068;2023-07-08T07:51:10;6.93;;;4.73;;
4821;SDS011;2425;47.794;13.068;2023-07-08T07:53:37;4.53;;;4.10;;
4821;SDS011;2425;47.794;13.068;2023-07-08T07:56:04;6.80;;;4.20;;
4821;SDS011;2425;47.794;13.068;2023-07-08T07:58:32;4.60;;;4.20;;
4821;SDS011;2425;47.794;13.068;2023-07-08T08:00:59;5.00;;;4.50;;
4821;SDS011;2425;47.794;13.068;2023-07-08T08:03:26;4.93;;;4.23;;
4821;SDS011;2425;47.794;13.068;2023-07-08T08:05:53;4.43;;;4.13;;
4821;SDS011;2425;47.794;13.068;2023-07-08T08:08:20;5.33;;;4.50;;
4821;SDS011;2425;47.794;13.068;2023-07-08T08:10:47;4.50;;;3.77;;
4821;SDS011;2425;47.794;13.068;2023-07-08T08:13:14;5.03;;;4.63;;
4821;SDS011;2425;47.794;13.068;2023-07-08T08:15:42;4.43;;;4.07;;
4821;SDS011;2425;47.794;13.068;2023-07-08T08:18:09;7.10;;;4.77;;
4821;SDS011;2425;47.794;13.068;2023-07-08T08:20:35;4.50;;;4.10;;
4821;SDS011;2425;47.794;13.068;2023-07-08T08:23:04;6.07;;;4.33;;
4821;SDS011;2425;47.794;13.068;2023-07-08T08:25:31;4.90;;;4.00;;
4821;SDS011;2425;47.794;13.068;2023-07-08T08:27:58;4.37;;;4.07;;
4821;SDS011;2425;47.794;13.068;2023-07-08T08:30:25;9.33;;;3.93;;
4821;SDS011;2425;47.794;13.068;2023-07-08T08:32:53;12.43;;;4.93;;
4821;SDS011;2425;47.794;13.068;2023-07-08T08:35:20;17.43;;;5.80;;
4821;SDS011;2425;47.794;13.068;2023-07-08T08:37:46;5.50;;;4.57;;
4821;SDS011;2425;47.794;13.068;2023-07-08T08:40:14;5.90;;;4.57;;
4821;SDS011;2425;47.794;13.068;2023-07-08T08:42:42;7.60;;;5.07;;
4821;SDS011;2425;47.794;13.068;2023-07-08T08:45:13;11.23;;;5.47;;
4821;SDS011;2425;47.794;13.068;2023-07-08T08:47:42;9.70;;;4.57;;
4821;SDS011;2425;47.794;13.068;2023-07-08T08:50:16;6.80;;;4.87;;
4821;SDS011;2425;47.794;13.068;2023-07-08T08:52:49;5.50;;;5.00;;
4821;SDS011;2425;47.794;13.068;2023-07-08T08:55:16;5.00;;;4.50;;
4821;SDS011;2425;47.794;13.068;2023-07-08T08:57:44;5.50;;;5.00;;
4821;SDS011;2425;47.794;13.068;2023-07-08T09:00:15;4.97;;;4.57;;
4821;SDS011;2425;47.794;13.068;2023-07-08T09:02:48;8.50;;;4.10;;
4821;SDS011;2425;47.794;13.068;2023-07-08T09:05:20;4.80;;;4.40;;
4821;SDS011;2425;47.794;13.068;2023-07-08T09:07:58;4.70;;;4.20;;
4821;SDS011;2425;47.794;13.068;2023-07-08T09:10:31;5.70;;;4.43;;
4821;SDS011;2425;47.794;13.068;2023-07-08T09:13:11;6.00;;;4.67;;
4821;SDS011;2425;47.794;13.068;2023-07-08T09:15:42;8.57;;;4.10;;
4821;SDS011;2425;47.794;13.068;2023-07-08T09:18:13;4.70;;;4.33;;
4821;SDS011;2425;47.794;13.068;2023-07-08T09:20:45;10.27;;;5.53;;
4821;SDS011;2425;47.794;13.068;2023-07-08T09:23:15;5.23;;;4.73;;
4821;SDS011;2425;47.794;13.068;2023-07-08T09:25:47;7.23;;;4.80;;
4821;SDS011;2425;47.794;13.068;2023-07-08T09:28:17;5.63;;;4.97;;
4821;SDS011;2425;47.794;13.068;2023-07-08T09:30:45;4.90;;;4.30;;
4821;SDS011;2425;47.794;13.068;2023-07-08T09:33:12;7.80;;;4.40;;
4821;SDS011;2425;47.794;13.068;2023-07-08T09:35:40;6.03;;;4.80;;
4821;SDS011;2425;47.794;13.068;2023-07-08T09:38:12;4.63;;;4.23;;
4821;SDS011;2425;47.794;13.068;2023-07-08T09:40:42;4.50;;;4.10;;
4821;SDS011;2425;47.794;13.068;2023-07-08T09:43:16;4.20;;;3.80;;
4821;SDS011;2425;47.794;13.068;2023-07-08T09:45:47;4.53;;;4.13;;
4821;SDS011;2425;47.794;13.068;2023-07-08T09:48:15;4.47;;;4.07;;
4821;SDS011;2425;47.794;13.068;2023-07-08T09:50:43;4.40;;;4.00;;
4821;SDS011;2425;47.794;13.068;2023-07-08T09:53:12;7.00;;;4.40;;
4821;SDS011;2425;47.794;13.068;2023-07-08T09:55:39;4.97;;;4.50;;
4821;SDS011;2425;47.794;13.068;2023-07-08T09:58:08;4.80;;;4.17;;
4821;SDS011;2425;47.794;13.068;2023-07-08T10:00:38;5.80;;;3.90;;
4821;SDS011;2425;47.794;13.068;2023-07-08T10:03:10;6.80;;;4.20;;
4821;SDS011;2425;47.794;13.068;2023-07-08T10:05:40;5.50;;;4.20;;
4821;SDS011;2425;47.794;13.068;2023-07-08T10:08:10;4.43;;;4.13;;
4821;SDS011;2425;47.794;13.068;2023-07-08T10:10:40;4.40;;;3.20;;
4821;SDS011;2425;47.794;13.068;2023-07-08T10:13:15;4.43;;;4.00;;
4821;SDS011;2425;47.794;13.068;2023-07-08T10:15:44;7.50;;;4.37;;
4821;SDS011;2425;47.794;13.068;2023-07-08T10:18:13;4.33;;;4.03;;
4821;SDS011;2425;47.794;13.068;2023-07-08T10:20:45;9.67;;;4.10;;
4821;SDS011;2425;47.794;13.068;2023-07-08T10:23:19;4.50;;;4.10;;
4821;SDS011;2425;47.794;13.068;2023-07-08T10:25:54;4.07;;;3.77;;
4821;SDS011;2425;47.794;13.068;2023-07-08T10:28:28;4.30;;;4.00;;
4821;SDS011;2425;47.794;13.068;2023-07-08T10:31:04;3.57;;;3.30;;
4821;SDS011;2425;47.794;13.068;2023-07-08T10:33:52;4.67;;;4.03;;
4821;SDS011;2425;47.794;13.068;2023-07-08T10:36:26;5.03;;;4.63;;
4821;SDS011;2425;47.794;13.068;2023-07-08T10:39:10;5.67;;;5.17;;
4821;SDS011;2425;47.794;13.068;2023-07-08T10:41:47;5.80;;;5.03;;
4821;SDS011;2425;47.794;13.068;2023-07-08T10:44:19;10.30;;;5.03;;
4821;SDS011;2425;47.794;13.068;2023-07-08T10:46:51;6.93;;;4.63;;
4821;SDS011;2425;47.794;13.068;2023-07-08T10:49:28;5.93;;;4.77;;
4821;SDS011;2425;47.794;13.068;2023-07-08T10:52:06;4.90;;;4.50;;
4821;SDS011;2425;47.794;13.068;2023-07-08T10:54:48;4.83;;;4.40;;
4821;SDS011;2425;47.794;13.068;2023-07-08T10:57:37;4.30;;;3.70;;
4821;SDS011;2425;47.794;13.068;2023-07-08T11:00:11;8.30;;;4.27;;
4821;SDS011;2425;47.794;13.068;2023-07-08T11:02:52;6.17;;;4.93;;
4821;SDS011;2425;47.794;13.068;2023-07-08T11:05:31;6.53;;;5.40;;
4821;SDS011;2425;47.794;13.068;2023-07-08T11:08:01;4.97;;;4.47;;
4821;SDS011;2425;47.794;13.068;2023-07-08T11:10:36;5.13;;;4.67;;
4821;SDS011;2425;47.794;13.068;2023-07-08T11:13:09;5.60;;;4.20;;
4821;SDS011;2425;47.794;13.068;2023-07-08T11:15:40;4.07;;;3.80;;
4821;SDS011;2425;47.794;13.068;2023-07-08T11:18:11;4.63;;;4.33;;
4821;SDS011;2425;47.794;13.068;2023-07-08T11:20:40;4.37;;;4.07;;
4821;SDS011;2425;47.794;13.068;2023-07-08T11:23:15;4.67;;;4.27;;
4821;SDS011;2425;47.794;13.068;2023-07-08T11:25:50;4.00;;;3.70;;
4821;SDS011;2425;47.794;13.068;2023-07-08T11:28:19;5.07;;;4.67;;
4821;SDS011;2425;47.794;13.068;2023-07-08T11:30:47;3.80;;;3.60;;
4821;SDS011;2425;47.794;13.068;2023-07-08T11:33:16;3.90;;;3.70;;
4821;SDS011;2425;47.794;13.068;2023-07-08T11:35:46;4.20;;;3.90;;
4821;SDS011;2425;47.794;13.068;2023-07-08T11:38:14;4.20;;;3.80;;
4821;SDS011;2425;47.794;13.068;2023-07-08T11:40:50;4.40;;;4.00;;
4821;SDS011;2425;47.794;13.068;2023-07-08T11:43:19;4.43;;;4.13;;
4821;SDS011;2425;47.794;13.068;2023-07-08T11:45:48;4.23;;;3.93;;
4821;SDS011;2425;47.794;13.068;2023-07-08T11:48:15;4.17;;;3.87;;
4821;SDS011;2425;47.794;13.068;2023-07-08T11:50:44;7.00;;;3.90;;
4821;SDS011;2425;47.794;13.068;2023-07-08T11:53:13;3.97;;;3.70;;
4821;SDS011;2425;47.794;13.068;2023-07-08T11:55:42;3.77;;;3.47;;
4821;SDS011;2425;47.794;13.068;2023-07-08T11:58:19;4.20;;;3.90;;
4821;SDS011;2425;47.794;13.068;2023-07-08T12:00:51;3.40;;;3.20;;
4821;SDS011;2425;47.794;13.068;2023-07-08T12:03:24;3.90;;;3.57;;
4821;SDS011;2425;47.794;13.068;2023-07-08T12:05:59;3.70;;;3.40;;
4821;SDS011;2425;47.794;13.068;2023-07-08T12:08:32;3.30;;;3.10;;
4821;SDS011;2425;47.794;13.068;2023-07-08T12:11:01;4.20;;;3.80;;
4821;SDS011;2425;47.794;13.068;2023-07-08T12:13:29;19.23;;;4.37;;
4821;SDS011;2425;47.794;13.068;2023-07-08T12:15:56;4.03;;;3.73;;
4821;SDS011;2425;47.794;13.068;2023-07-08T12:18:24;4.07;;;3.77;;
4821;SDS011;2425;47.794;13.068;2023-07-08T12:20:52;3.73;;;3.43;;
4821;SDS011;2425;47.794;13.068;2023-07-08T12:23:22;4.10;;;3.80;;
4821;SDS011;2425;47.794;13.068;2023-07-08T12:25:50;4.30;;;3.90;;
4821;SDS011;2425;47.794;13.068;2023-07-08T12:28:17;3.93;;;3.60;;
4821;SDS011;2425;47.794;13.068;2023-07-08T12:30:46;8.80;;;5.40;;
4821;SDS011;2425;47.794;13.068;2023-07-08T12:33:14;10.90;;;6.17;;
4821;SDS011;2425;47.794;13.068;2023-07-08T12:35:45;7.03;;;6.33;;
4821;SDS011;2425;47.794;13.068;2023-07-08T12:38:17;8.00;;;5.93;;
4821;SDS011;2425;47.794;13.068;2023-07-08T12:40:45;9.07;;;6.10;;
4821;SDS011;2425;47.794;13.068;2023-07-08T12:43:12;12.57;;;6.03;;
4821;SDS011;2425;47.794;13.068;2023-07-08T12:45:39;7.07;;;6.23;;
4821;SDS011;2425;47.794;13.068;2023-07-08T12:48:07;12.00;;;7.20;;
4821;SDS011;2425;47.794;13.068;2023-07-08T12:50:35;10.40;;;6.00;;
4821;SDS011;2425;47.794;13.068;2023-07-08T12:53:03;10.57;;;6.20;;
4821;SDS011;2425;47.794;13.068;2023-07-08T12:55:34;9.10;;;6.57;;
4821;SDS011;2425;47.794;13.068;2023-07-08T12:58:02;11.70;;;6.73;;
4821;SDS011;2425;47.794;13.068;2023-07-08T13:00:30;12.73;;;6.33;;
4821;SDS011;2425;47.794;13.068;2023-07-08T13:02:58;8.70;;;5.80;;
4821;SDS011;2425;47.794;13.068;2023-07-08T13:05:29;16.10;;;6.10;;
4821;SDS011;2425;47.794;13.068;2023-07-08T13:07:55;11.93;;;5.80;;
4821;SDS011;2425;47.794;13.068;2023-07-08T13:10:24;10.17;;;6.50;;
4821;SDS011;2425;47.794;13.068;2023-07-08T13:12:52;11.93;;;5.77;;
4821;SDS011;2425;47.794;13.068;2023-07-08T13:15:25;9.10;;;5.80;;
4821;SDS011;2425;47.794;13.068;2023-07-08T13:17:54;8.13;;;6.20;;
4821;SDS011;2425;47.794;13.068;2023-07-08T13:20:21;9.10;;;6.20;;
4821;SDS011;2425;47.794;13.068;2023-07-08T13:22:51;8.87;;;6.63;;
4821;SDS011;2425;47.794;13.068;2023-07-08T13:25:19;9.60;;;6.00;;
4821;SDS011;2425;47.794;13.068;2023-07-08T13:27:57;7.00;;;6.30;;
4821;SDS011;2425;47.794;13.068;2023-07-08T13:30:26;8.20;;;5.73;;
4821;SDS011;2425;47.794;13.068;2023-07-08T13:32:54;12.30;;;6.60;;
4821;SDS011;2425;47.794;13.068;2023-07-08T13:35:22;13.57;;;6.70;;
4821;SDS011;2425;47.794;13.068;2023-07-08T13:37:54;12.23;;;5.73;;
4821;SDS011;2425;47.794;13.068;2023-07-08T13:40:21;8.67;;;6.10;;
4821;SDS011;2425;47.794;13.068;2023-07-08T13:42:49;5.70;;;5.10;;
4821;SDS011;2425;47.794;13.068;2023-07-08T13:45:17;9.87;;;6.13;;
4821;SDS011;2425;47.794;13.068;2023-07-08T13:47:58;6.57;;;5.97;;
4821;SDS011;2425;47.794;13.068;2023-07-08T13:50:30;8.43;;;6.47;;
4821;SDS011;2425;47.794;13.068;2023-07-08T13:53:02;9.90;;;6.70;;
4821;SDS011;2425;47.794;13.068;2023-07-08T13:55:29;7.30;;;5.73;;
4821;SDS011;2425;47.794;13.068;2023-07-08T13:57:57;5.80;;;5.20;;
4821;SDS011;2425;47.794;13.068;2023-07-08T14:00:25;8.80;;;5.77;;
4821;SDS011;2425;47.794;13.068;2023-07-08T14:02:52;7.50;;;6.07;;
4821;SDS011;2425;47.794;13.068;2023-07-08T14:05:19;6.70;;;5.63;;
4821;SDS011;2425;47.794;13.068;2023-07-08T14:07:47;8.20;;;5.73;;
4821;SDS011;2425;47.794;13.068;2023-07-08T14:10:15;10.33;;;5.67;;
4821;SDS011;2425;47.794;13.068;2023-07-08T14:12:42;7.33;;;6.10;;
4821;SDS011;2425;47.794;13.068;2023-07-08T14:15:09;7.07;;;6.37;;
4821;SDS011;2425;47.794;13.068;2023-07-08T14:17:36;14.83;;;7.30;;
4821;SDS011;2425;47.794;13.068;2023-07-08T14:20:07;8.97;;;7.13;;
4821;SDS011;2425;47.794;13.068;2023-07-08T14:22:36;7.57;;;6.80;;
4821;SDS011;2425;47.794;13.068;2023-07-08T14:25:04;9.93;;;7.30;;
4821;SDS011;2425;47.794;13.068;2023-07-08T14:27:35;8.63;;;6.07;;
4821;SDS011;2425;47.794;13.068;2023-07-08T14:30:02;8.27;;;6.63;;
4821;SDS011;2425;47.794;13.068;2023-07-08T14:32:30;10.90;;;6.85;;
4821;SDS011;2425;47.794;13.068;2023-07-08T14:34:57;19.10;;;6.30;;
4821;SDS011;2425;47.794;13.068;2023-07-08T14:37:41;9.57;;;6.67;;
4821;SDS011;2425;47.794;13.068;2023-07-08T14:43:00;7.27;;;6.00;;
4821;SDS011;2425;47.794;13.068;2023-07-08T14:45:29;6.93;;;5.90;;
4821;SDS011;2425;47.794;13.068;2023-07-08T14:47:57;8.40;;;5.93;;
4821;SDS011;2425;47.794;13.068;2023-07-08T14:50:23;9.07;;;6.10;;
4821;SDS011;2425;47.794;13.068;2023-07-08T14:52:54;6.33;;;5.30;;
4821;SDS011;2425;47.794;13.068;2023-07-08T14:55:21;11.43;;;6.03;;
4821;SDS011;2425;47.794;13.068;2023-07-08T14:57:47;6.23;;;5.63;;
4821;SDS011;2425;47.794;13.068;2023-07-08T15:00:17;6.50;;;5.63;;
4821;SDS011;2425;47.794;13.068;2023-07-08T15:02:46;5.50;;;4.80;;
4821;SDS011;2425;47.794;13.068;2023-07-08T15:05:14;6.87;;;5.40;;
4821;SDS011;2425;47.794;13.068;2023-07-08T15:07:43;8.73;;;5.50;;
4821;SDS011;2425;47.794;13.068;2023-07-08T15:10:10;6.93;;;5.20;;
4821;SDS011;2425;47.794;13.068;2023-07-08T15:12:37;5.33;;;4.83;;